Time;durP1;ratioP1;P1;durP2;ratioP2;P2;SDS_P1;SDS_P2;PMS_P1;PMS_P2;Temp;Humidity;BMP_temperature;BMP_pressure;BME280_temperature;BME280_humidity;BME280_pressure;Samples;Min_cycle;Max_cycle;Signal;HPM_P1;HPM_P2
2022/11/25 04:51:46;;;;;;;1.00;0.50;;;;;;;-145.06;0.00;60892.56;5961678;23;20028;-93
2022/11/25 05:01:55;;;;;;;1.45;0.47;;;;;;;-145.06;0.00;60892.56;5990741;23;20005;-91
2022/11/25 05:12:39;;;;;;;;;;;;;;;;;;;;;
2022/11/25 05:16:10;;;;;;;;;;;;;;;;;;;;;
2022/11/25 05:19:15;;;;;;;0.68;0.45;;;;;;;-145.06;0.00;60892.56;5808984;23;20011;-91
2022/11/25 05:22:29;;;;;;;1.10;0.60;;;;;;;-145.06;0.00;60892.56;5877999;23;20306;-92
2022/11/25 05:26:14;;;;;;;;;;;;;;;;;;;;;
2022/11/25 05:29:00;;;;;;;0.50;0.40;;;;;;;-145.06;0.00;60892.56;5961765;23;20005;-92
2022/11/25 05:31:45;;;;;;;1.13;0.50;;;;;;;-145.06;0.00;60892.56;5927989;23;20009;-90
2022/11/25 05:34:30;;;;;;;0.32;0.30;;;;;;;-145.06;0.00;60892.56;5928789;23;20005;-91
2022/11/25 05:37:16;;;;;;;1.02;0.45;;;;;;;-145.06;0.00;60892.56;5928059;23;20061;-91
2022/11/25 05:40:34;;;;;;;;;;;;;;;;;;;;;
2022/11/25 05:43:13;;;;;;;0.30;0.30;;;;;;;-145.06;0.00;60892.56;5945606;23;20005;-92
2022/11/25 05:45:52;;;;;;;0.30;0.30;;;;;;;-145.06;0.00;60892.56;5930407;23;20080;-92
2022/11/25 05:51:50;;;;;;;0.45;0.32;;;;;;;-145.06;0.00;60892.56;5961411;23;20009;-91
2022/11/25 05:54:41;;;;;;;0.40;0.40;;;;;;;-145.06;0.00;60892.56;5927867;23;20010;-94
2022/11/25 05:57:39;;;;;;;0.50;0.40;;;;;;;-145.06;0.00;60892.56;5927671;23;20006;-92
2022/11/25 06:00:18;;;;;;;0.38;0.30;;;;;;;-145.06;0.00;60892.56;5948708;23;20356;-90
2022/11/25 06:03:00;;;;;;;0.60;0.30;;;;;;;-145.06;0.00;60892.56;5948861;23;20029;-91
2022/11/25 16:18:21;;;;;;;2.83;0.68;;;;;;;-145.06;0.00;60892.56;5965530;23;20028;-92
2022/11/25 16:47:01;;;;;;;2.15;1.10;;;;;;;-145.06;0.00;60892.56;5922920;23;20029;-92
2022/11/25 16:49:41;;;;;;;2.03;1.00;;;;;;;-145.06;0.00;60892.56;5900270;23;20002;-92
2022/11/25 16:52:49;;;;;;;1.30;0.80;;;;;;;-145.06;0.00;60892.56;5900125;23;20013;-93
2022/11/25 16:55:30;;;;;;;4.65;1.40;;;;;;;-145.06;0.00;60892.56;5901062;23;20437;-91
2022/11/25 17:02:33;;;;;;;1.67;0.90;;;;;;;-145.06;0.00;60892.56;5833919;23;20007;-92
2022/11/25 17:05:46;;;;;;;1.75;0.75;;;;;;;-145.06;0.00;60892.56;5815129;23;20007;-92
2022/11/25 17:08:51;;;;;;;2.55;0.90;;;;;;;-145.06;0.00;60892.56;5899486;23;20413;-91
2022/11/25 17:12:04;;;;;;;2.55;1.00;;;;;;;-145.06;0.00;60892.56;5900702;23;20029;-92
2022/11/25 17:14:49;;;;;;;2.47;1.00;;;;;;;-145.06;0.00;60892.56;5899801;23;20010;-92
2022/11/25 17:17:29;;;;;;;2.67;0.73;;;;;;;-145.06;0.00;60892.56;5899079;23;20010;-92
2022/11/25 17:20:39;;;;;;;4.15;1.10;;;;;;;-145.06;0.00;60892.56;5899821;23;20014;-93
2022/11/25 17:25:06;;;;;;;2.80;0.95;;;;;;;-145.06;0.00;60892.56;5888238;23;20306;-92
2022/11/25 17:27:23;;;;;;;3.95;1.02;;;;;;;-145.06;0.00;60892.56;5902095;23;20002;-91
2022/11/25 17:30:05;;;;;;;2.80;1.40;;;;;;;-145.06;0.00;60892.56;5899262;23;20009;-91
2022/11/25 17:33:32;;;;;;;;;;;;;;;;;;;;;
2022/11/25 17:53:52;;;;;;;3.10;0.98;;;;;;;-145.06;0.00;60892.56;5974730;23;20027;-92
2022/11/25 17:56:31;;;;;;;;;;;;;;;-145.06;0.00;60892.56;5948260;23;20005;-91
2022/11/25 17:59:39;;;;;;;2.17;1.33;;;;;;;-145.06;0.00;60892.56;5928188;23;20200;-93
2022/11/25 18:02:24;;;;;;;2.45;1.10;;;;;;;-145.06;0.00;60892.56;5924258;23;20271;-91
2022/11/25 18:05:19;;;;;;;2.53;1.00;;;;;;;-145.06;0.00;60892.56;5928037;23;20669;-91
2022/11/25 18:08:04;;;;;;;3.47;1.10;;;;;;;-145.06;0.00;60892.56;5927392;23;20006;-93
2022/11/25 18:10:51;;;;;;;2.15;1.27;;;;;;;-145.06;0.00;60892.56;5947759;23;20006;-91
2022/11/25 18:13:36;;;;;;;2.45;1.17;;;;;;;-145.06;0.00;60892.56;5927679;23;20584;-91
2022/11/25 18:16:27;;;;;;;2.83;1.10;;;;;;;-145.06;0.00;60892.56;5927101;23;20010;-91
2022/11/25 18:19:11;;;;;;;1.80;1.10;;;;;;;-145.06;0.00;60892.56;5927197;23;20001;-92
2022/11/25 18:29:53;;;;;;;;;;;;;;;;;;;;;
